KENV

Wendover Airport

Wendover, Utah, USA
METAR KENV 240156Z AUTO 19006KT 10SM CLR 22/05 A2995 RMK AO2 SLP117 T02170050
Observed Flight Rules
May-24 @ 01:56 UTC (7 minutes ago) Visual Flight Rules
Wind Visibility Clouds
190° at 6 knots 10 miles
  • Clear skies
Temperatures Readings
Current 22°C / 72°F
Dewpoint 5°C / 41°F
Humidity 33%
Altimeter 29.95" Hg
Pressure 1011.7 hPa
Elevation 1292
METAR KENV 240156Z AUTO 19006KT 10SM CLR 22/05 A2995 RMK AO2 SLP117 T02170050
Observed Flight Rules
May-24 @ 01:56 UTC
(7 minutes ago)
VFR
Wind Visibility
190° at 6 knots 10 miles
Clouds
  • Clear skies
Temperature Dewpoint
22°C / 72°F 5°C / 41°F
Humidity Altimeter Pressure
33% 29.95" Hg 1011.7 hPa